Time,TemperatureF,DewpointF,PressureIn,WindDirection,WindDirectionDegrees,WindSpeedMPH,WindSpeedGustMPH,Humidity,HourlyPrecipIn,Conditions,Clouds,dailyrainin,SolarRadiationWatts/m^2,SoftwareType,DateUTC
2013-05-16 00:04:00,64.0,61.0,-100.00,SSW,193,6.0,10.0,89,0.00,,,0.00,0.000000,,2013-05-16 10:04:00,
2013-05-16 00:15:00,64.0,61.0,-100.00,SSW,193,6.0,10.0,89,0.00,,,0.00,0.000000,,2013-05-16 10:15:00,
2013-05-16 00:24:00,64.0,61.0,-100.00,SSW,193,6.0,10.0,89,0.00,,,0.00,0.000000,,2013-05-16 10:24:00,
2013-05-16 00:35:00,64.0,61.0,-100.00,SSW,193,6.0,10.0,89,0.00,,,0.00,0.000000,,2013-05-16 10:35:00,
2013-05-16 01:05:00,62.0,59.0,-100.00,South,181,7.0,10.0,90,0.00,,,0.00,0.000000,,2013-05-16 11:05:00,
2013-05-16 01:14:00,62.0,59.0,-100.00,South,181,7.0,10.0,90,0.00,,,0.00,0.000000,,2013-05-16 11:14:00,
2013-05-16 01:25:00,62.0,59.0,-100.00,South,181,7.0,10.0,90,0.00,,,0.00,0.000000,,2013-05-16 11:25:00,
2013-05-16 01:35:00,62.0,59.0,-100.00,South,181,7.0,10.0,90,0.00,,,0.00,0.000000,,2013-05-16 11:35:00,
2013-05-16 02:06:00,62.0,58.0,-100.00,SE,136,4.0,10.0,88,0.00,,,0.00,0.000000,,2013-05-16 12:06:00,
2013-05-16 02:13:00,62.0,58.0,-100.00,SE,136,4.0,10.0,88,0.00,,,0.00,0.000000,,2013-05-16 12:13:00,
2013-05-16 02:23:00,62.0,58.0,-100.00,SE,136,4.0,10.0,88,0.00,,,0.00,0.000000,,2013-05-16 12:23:00,
2013-05-16 02:34:00,62.0,58.0,-100.00,SE,136,4.0,10.0,88,0.00,,,0.00,0.000000,,2013-05-16 12:34:00,
2013-05-16 03:04:00,61.0,57.0,-100.00,SE,142,4.0,7.0,88,0.00,,,0.00,0.000000,,2013-05-16 13:04:00,
2013-05-16 03:12:00,61.0,57.0,-100.00,SE,142,4.0,7.0,88,0.00,,,0.00,0.000000,,2013-05-16 13:12:00,
2013-05-16 03:26:00,61.0,57.0,-100.00,SE,142,4.0,7.0,88,0.00,,,0.00,0.000000,,2013-05-16 13:26:00,
2013-05-16 03:35:00,61.0,57.0,-100.00,SE,142,4.0,7.0,88,0.00,,,0.00,0.000000,,2013-05-16 13:35:00,
2013-05-16 03:37:00,60.0,56.0,-100.00,SSE,147,3.0,8.0,86,0.00,,,0.00,0.000000,,2013-05-16 13:37:00,
2013-05-16 04:05:00,60.0,56.0,-100.00,SSE,147,3.0,8.0,86,0.00,,,0.00,0.000000,,2013-05-16 14:05:00,
2013-05-16 04:15:00,60.0,56.0,-100.00,SSE,147,3.0,8.0,86,0.00,,,0.00,0.000000,,2013-05-16 14:15:00,
2013-05-16 04:23:00,60.0,56.0,-100.00,SSE,147,3.0,8.0,86,0.00,,,0.00,0.000000,,2013-05-16 14:23:00,
2013-05-16 04:37:00,60.0,54.0,-100.00,SSE,159,6.0,12.0,82,0.00,,,0.00,0.000000,,2013-05-16 14:37:00,
2013-05-16 05:08:00,60.0,54.0,-100.00,SSE,159,6.0,12.0,82,0.00,,,0.00,0.000000,,2013-05-16 15:08:00,
2013-05-16 05:17:00,60.0,54.0,-100.00,SSE,159,6.0,12.0,82,0.00,,,0.00,0.000000,,2013-05-16 15:17:00,
2013-05-16 05:28:00,60.0,54.0,-100.00,SSE,159,6.0,12.0,82,0.00,,,0.00,0.000000,,2013-05-16 15:28:00,
2013-05-16 05:37:00,59.0,-99.9,-100.00,SSE,153,7.0,15.0,77,0.00,,,0.00,0.000000,,2013-05-16 15:37:00,
2013-05-16 06:09:00,59.0,52.0,-100.00,SSE,153,7.0,15.0,77,0.00,,,0.00,0.000000,,2013-05-16 16:09:00,
2013-05-16 06:19:00,59.0,52.0,-100.00,SSE,153,7.0,15.0,77,0.00,,,0.00,0.000000,,2013-05-16 16:19:00,
2013-05-16 06:30:00,59.0,52.0,-100.00,SSE,153,7.0,15.0,77,0.00,,,0.00,0.000000,,2013-05-16 16:30:00,
2013-05-16 06:37:00,64.0,55.0,-100.00,SSE,162,6.0,13.0,72,0.00,,,0.00,58.000000,,2013-05-16 16:37:00,
2013-05-16 07:10:00,64.0,55.0,-100.00,SSE,162,6.0,13.0,72,0.00,,,0.00,58.000000,,2013-05-16 17:10:00,
2013-05-16 07:20:00,64.0,55.0,-100.00,SSE,162,6.0,13.0,72,0.00,,,0.00,58.000000,,2013-05-16 17:20:00,
2013-05-16 07:30:00,64.0,55.0,-100.00,SSE,162,6.0,13.0,72,0.00,,,0.00,58.000000,,2013-05-16 17:30:00,
2013-05-16 07:37:00,-999.0,-99.9,-100.00,SW,224,6.0,11.0,53,0.00,,,0.00,322.000000,,2013-05-16 17:37:00,
2013-05-16 08:10:00,70.0,52.0,-100.00,SW,224,6.0,11.0,53,0.00,,,0.00,322.000000,,2013-05-16 18:10:00,
2013-05-16 08:20:00,70.0,52.0,-100.00,SW,224,6.0,11.0,53,0.00,,,0.00,322.000000,,2013-05-16 18:20:00,
2013-05-16 08:30:00,-999.0,-99.9,-100.00,SW,224,6.0,11.0,53,0.00,,,0.00,322.000000,,2013-05-16 18:30:00,
2013-05-16 08:37:00,74.0,-99.9,-100.00,NW,311,2.0,10.0,48,0.00,,,0.00,603.000000,,2013-05-16 18:37:00,
2013-05-16 09:10:00,74.0,53.0,-100.00,NW,311,2.0,10.0,48,0.00,,,0.00,603.000000,,2013-05-16 19:10:00,
2013-05-16 09:20:00,74.0,53.0,-100.00,NW,311,2.0,10.0,48,0.00,,,0.00,603.000000,,2013-05-16 19:20:00,
2013-05-16 09:30:00,74.0,53.0,-100.00,NW,311,2.0,10.0,48,0.00,,,0.00,603.000000,,2013-05-16 19:30:00,
2013-05-16 09:37:00,-999.0,-99.9,-100.00,North,3,6.0,13.0,46,0.00,,,0.00,835.000000,,2013-05-16 19:37:00,
2013-05-16 10:10:00,-999.0,-99.9,-100.00,North,3,6.0,13.0,46,0.00,,,0.00,835.000000,,2013-05-16 20:10:00,
2013-05-16 10:20:00,75.0,-99.9,-100.00,North,3,6.0,13.0,46,0.00,,,0.00,835.000000,,2013-05-16 20:20:00,
2013-05-16 10:30:00,75.0,53.0,-100.00,North,3,6.0,13.0,46,0.00,,,0.00,835.000000,,2013-05-16 20:30:00,
2013-05-16 10:37:00,77.0,52.0,-100.00,NE,43,6.0,16.0,42,0.00,,,0.00,1118.000000,,2013-05-16 20:37:00,
2013-05-16 11:10:00,77.0,-99.9,-100.00,NE,43,6.0,16.0,42,0.00,,,0.00,1118.000000,,2013-05-16 21:10:00,
2013-05-16 11:20:00,77.0,-99.9,-100.00,NE,43,6.0,16.0,42,0.00,,,0.00,1118.000000,,2013-05-16 21:20:00,
2013-05-16 11:29:00,77.0,52.0,-100.00,NE,43,6.0,16.0,42,0.00,,,0.00,1118.000000,,2013-05-16 21:29:00,
2013-05-16 11:37:00,77.0,57.0,-100.00,North,5,11.0,17.0,50,0.00,,,0.00,841.000000,,2013-05-16 21:37:00,
2013-05-16 12:08:00,77.0,57.0,-100.00,North,5,11.0,17.0,50,0.00,,,0.00,841.000000,,2013-05-16 22:08:00,
2013-05-16 12:20:00,77.0,57.0,-100.00,North,5,11.0,17.0,50,0.00,,,0.00,841.000000,,2013-05-16 22:20:00,
2013-05-16 12:30:00,77.0,57.0,-100.00,North,5,11.0,17.0,50,0.00,,,0.00,841.000000,,2013-05-16 22:30:00,
2013-05-16 13:06:00,78.0,57.0,-100.00,NNW,347,9.0,22.0,49,0.00,,,0.00,924.000000,,2013-05-16 23:06:00,
2013-05-16 13:16:00,78.0,57.0,-100.00,NNW,347,9.0,22.0,49,0.00,,,0.00,924.000000,,2013-05-16 23:16:00,
2013-05-16 13:24:00,78.0,57.0,-100.00,NNW,347,9.0,22.0,49,0.00,,,0.00,924.000000,,2013-05-16 23:24:00,
2013-05-16 13:34:00,78.0,57.0,-100.00,NNW,347,9.0,22.0,49,0.00,,,0.00,924.000000,,2013-05-16 23:34:00,
2013-05-16 14:02:00,75.0,59.0,-100.00,NNE,13,14.0,32.0,58,0.00,,,0.00,782.000000,,2013-05-17 00:02:00,
2013-05-16 14:13:00,75.0,59.0,-100.00,NNE,13,14.0,32.0,58,0.00,,,0.00,782.000000,,2013-05-17 00:13:00,
2013-05-16 14:22:00,75.0,59.0,-100.00,NNE,13,14.0,32.0,58,0.00,,,0.00,782.000000,,2013-05-17 00:22:00,
2013-05-16 14:33:00,75.0,59.0,-100.00,NNE,13,14.0,32.0,58,0.00,,,0.00,782.000000,,2013-05-17 00:33:00,
2013-05-16 15:03:00,73.0,61.0,-100.00,NNW,336,8.0,22.0,65,0.00,,,0.00,765.000000,,2013-05-17 01:03:00,
2013-05-16 15:12:00,73.0,61.0,-100.00,NNW,336,8.0,22.0,65,0.00,,,0.00,765.000000,,2013-05-17 01:12:00,
2013-05-16 15:23:00,73.0,61.0,-100.00,NNW,336,8.0,22.0,65,0.00,,,0.00,765.000000,,2013-05-17 01:23:00,
2013-05-16 15:31:00,73.0,61.0,-100.00,NNW,336,8.0,22.0,65,0.00,,,0.00,765.000000,,2013-05-17 01:31:00,
2013-05-16 16:02:00,73.0,61.0,-100.00,WNW,298,9.0,17.0,67,0.00,,,0.00,499.000000,,2013-05-17 02:02:00,
2013-05-16 16:11:00,73.0,61.0,-100.00,WNW,298,9.0,17.0,67,0.00,,,0.00,499.000000,,2013-05-17 02:11:00,
2013-05-16 16:21:00,73.0,61.0,-100.00,WNW,298,9.0,17.0,67,0.00,,,0.00,499.000000,,2013-05-17 02:21:00,
2013-05-16 16:32:00,73.0,61.0,-100.00,WNW,298,9.0,17.0,67,0.00,,,0.00,499.000000,,2013-05-17 02:32:00,
2013-05-16 17:01:00,69.0,60.0,-100.00,NNW,341,9.0,17.0,72,0.00,,,0.00,123.000000,,2013-05-17 03:01:00,
2013-05-16 17:11:00,69.0,60.0,-100.00,NNW,341,9.0,17.0,72,0.00,,,0.00,123.000000,,2013-05-17 03:11:00,
2013-05-16 17:22:00,69.0,60.0,-100.00,NNW,341,9.0,17.0,72,0.00,,,0.00,123.000000,,2013-05-17 03:22:00,
2013-05-16 17:33:00,69.0,60.0,-100.00,NNW,341,9.0,17.0,72,0.00,,,0.00,123.000000,,2013-05-17 03:33:00,
2013-05-16 18:02:00,71.0,59.0,-100.00,NNE,17,11.0,16.0,66,0.00,,,0.00,105.000000,,2013-05-17 04:02:00,
2013-05-16 18:13:00,71.0,59.0,-100.00,NNE,17,11.0,16.0,66,0.00,,,0.00,105.000000,,2013-05-17 04:13:00,
2013-05-16 18:23:00,71.0,59.0,-100.00,NNE,17,11.0,16.0,66,0.00,,,0.00,105.000000,,2013-05-17 04:23:00,
2013-05-16 18:33:00,71.0,59.0,-100.00,NNE,17,11.0,16.0,66,0.00,,,0.00,105.000000,,2013-05-17 04:33:00,
2013-05-16 19:02:00,68.0,59.0,-100.00,NNE,22,6.0,16.0,72,0.00,,,0.00,64.000000,,2013-05-17 05:02:00,
2013-05-16 19:14:00,68.0,59.0,-100.00,NNE,22,6.0,16.0,72,0.00,,,0.00,64.000000,,2013-05-17 05:14:00,
2013-05-16 19:21:00,68.0,59.0,-100.00,NNE,22,6.0,16.0,72,0.00,,,0.00,64.000000,,2013-05-17 05:21:00,
2013-05-16 19:32:00,68.0,59.0,-100.00,NNE,22,6.0,16.0,72,0.00,,,0.00,64.000000,,2013-05-17 05:32:00,
2013-05-16 20:01:00,66.0,58.0,-100.00,ENE,76,0.0,11.0,75,0.00,,,0.00,5.000000,,2013-05-17 06:01:00,
2013-05-16 20:11:00,66.0,58.0,-100.00,ENE,76,0.0,11.0,75,0.00,,,0.00,5.000000,,2013-05-17 06:11:00,
2013-05-16 20:21:00,66.0,58.0,-100.00,ENE,76,0.0,11.0,75,0.00,,,0.00,5.000000,,2013-05-17 06:21:00,
2013-05-16 20:32:00,66.0,58.0,-100.00,ENE,76,0.0,11.0,75,0.00,,,0.00,5.000000,,2013-05-17 06:32:00,
2013-05-16 21:02:00,65.0,58.0,-100.00,SSW,207,3.0,4.0,78,0.00,,,0.00,0.000000,,2013-05-17 07:02:00,
2013-05-16 21:11:00,65.0,58.0,-100.00,SSW,207,3.0,4.0,78,0.00,,,0.00,0.000000,,2013-05-17 07:11:00,
2013-05-16 21:21:00,65.0,58.0,-100.00,SSW,207,3.0,4.0,78,0.00,,,0.00,0.000000,,2013-05-17 07:21:00,
2013-05-16 21:32:00,65.0,58.0,-100.00,SSW,207,3.0,4.0,78,0.00,,,0.00,0.000000,,2013-05-17 07:32:00,
2013-05-16 22:02:00,66.0,60.0,-100.00,South,186,4.0,5.0,80,0.00,,,0.00,0.000000,,2013-05-17 08:02:00,
2013-05-16 22:12:00,66.0,60.0,-100.00,South,186,4.0,5.0,80,0.00,,,0.00,0.000000,,2013-05-17 08:12:00,
2013-05-16 22:22:00,66.0,60.0,-100.00,South,186,4.0,5.0,80,0.00,,,0.00,0.000000,,2013-05-17 08:22:00,
2013-05-16 22:33:00,66.0,60.0,-100.00,South,186,4.0,5.0,80,0.00,,,0.00,0.000000,,2013-05-17 08:33:00,
2013-05-16 23:02:00,64.0,49.0,-100.00,South,178,6.0,12.0,59,0.00,,,0.00,0.000000,,2013-05-17 09:02:00,
2013-05-16 23:12:00,64.0,49.0,-100.00,South,178,6.0,12.0,59,0.00,,,0.00,0.000000,,2013-05-17 09:12:00,
2013-05-16 23:22:00,64.0,49.0,-100.00,South,178,6.0,12.0,59,0.00,,,0.00,0.000000,,2013-05-17 09:22:00,
2013-05-16 23:33:00,64.0,49.0,-100.00,South,178,6.0,12.0,59,0.00,,,0.00,0.000000,,2013-05-17 09:33:00,